sensor_id;sensor_type;location;lat;lon;timestamp;pressure;altitude;pressure_sealevel;temperature;humidity
28344;BME280;15597;50.914;6.638;2022-09-09T00:00:11;100098.59;;;24.29;44.88
28344;BME280;15597;50.914;6.638;2022-09-09T00:02:37;100109.09;;;24.11;44.94
28344;BME280;15597;50.914;6.638;2022-09-09T00:07:48;100087.19;;;24.27;44.93
28344;BME280;15597;50.914;6.638;2022-09-09T00:10:28;100089.94;;;24.37;44.71
28344;BME280;15597;50.914;6.638;2022-09-09T00:13:09;100086.66;;;24.33;44.48
28344;BME280;15597;50.914;6.638;2022-09-09T00:16:19;100092.00;;;24.33;44.90
28344;BME280;15597;50.914;6.638;2022-09-09T00:21:14;100098.28;;;24.44;44.75
28344;BME280;15597;50.914;6.638;2022-09-09T00:23:54;100100.75;;;24.35;44.52
28344;BME280;15597;50.914;6.638;2022-09-09T00:26:30;100099.31;;;24.31;44.51
28344;BME280;15597;50.914;6.638;2022-09-09T00:29:28;100091.84;;;24.25;44.60
28344;BME280;15597;50.914;6.638;2022-09-09T00:32:07;100085.50;;;24.26;44.64
28344;BME280;15597;50.914;6.638;2022-09-09T00:34:36;100095.38;;;24.26;44.57
28344;BME280;15597;50.914;6.638;2022-09-09T00:37:05;100089.16;;;24.25;44.74
28344;BME280;15597;50.914;6.638;2022-09-09T00:39:34;100086.63;;;24.24;44.79
28344;BME280;15597;50.914;6.638;2022-09-09T00:44:52;100087.56;;;24.13;44.76
28344;BME280;15597;50.914;6.638;2022-09-09T00:50:35;100085.69;;;24.03;44.81
28344;BME280;15597;50.914;6.638;2022-09-09T00:53:28;100080.94;;;24.07;44.65
28344;BME280;15597;50.914;6.638;2022-09-09T00:58:27;100095.84;;;24.10;44.70
28344;BME280;15597;50.914;6.638;2022-09-09T01:01:11;100092.72;;;24.04;44.81
28344;BME280;15597;50.914;6.638;2022-09-09T01:06:22;100092.72;;;24.04;44.84
28344;BME280;15597;50.914;6.638;2022-09-09T01:09:07;100092.72;;;24.04;44.65
28344;BME280;15597;50.914;6.638;2022-09-09T01:17:27;100087.13;;;24.07;44.67
28344;BME280;15597;50.914;6.638;2022-09-09T01:20:22;100087.66;;;24.01;44.65
28344;BME280;15597;50.914;6.638;2022-09-09T01:23:26;100087.88;;;23.98;44.81
28344;BME280;15597;50.914;6.638;2022-09-09T01:26:32;100088.88;;;23.97;44.57
28344;BME280;15597;50.914;6.638;2022-09-09T01:29:02;100083.03;;;24.03;44.51
28344;BME280;15597;50.914;6.638;2022-09-09T01:31:41;100077.94;;;24.00;44.34
28344;BME280;15597;50.914;6.638;2022-09-09T01:34:12;100083.28;;;24.00;44.48
28344;BME280;15597;50.914;6.638;2022-09-09T01:36:43;100089.56;;;23.99;44.33
28344;BME280;15597;50.914;6.638;2022-09-09T01:39:10;100093.00;;;24.01;44.23
28344;BME280;15597;50.914;6.638;2022-09-09T01:41:37;100092.25;;;23.99;44.15
28344;BME280;15597;50.914;6.638;2022-09-09T01:44:07;100086.91;;;23.99;44.53
28344;BME280;15597;50.914;6.638;2022-09-09T01:46:35;100097.59;;;23.99;44.63
28344;BME280;15597;50.914;6.638;2022-09-09T01:49:03;100093.97;;;24.00;44.66
28344;BME280;15597;50.914;6.638;2022-09-09T01:51:29;100095.06;;;23.76;44.68
28344;BME280;15597;50.914;6.638;2022-09-09T01:53:58;100094.03;;;23.89;44.65
28344;BME280;15597;50.914;6.638;2022-09-09T02:02:03;100085.03;;;23.90;44.42
28344;BME280;15597;50.914;6.638;2022-09-09T02:07:38;100083.72;;;23.84;44.40
28344;BME280;15597;50.914;6.638;2022-09-09T02:10:28;100080.75;;;23.77;44.52
28344;BME280;15597;50.914;6.638;2022-09-09T02:13:11;100079.63;;;23.80;44.25
28344;BME280;15597;50.914;6.638;2022-09-09T02:15:44;100086.09;;;23.77;44.36
28344;BME280;15597;50.914;6.638;2022-09-09T02:18:13;100077.81;;;23.81;44.45
28344;BME280;15597;50.914;6.638;2022-09-09T02:20:42;100077.66;;;23.82;44.23
28344;BME280;15597;50.914;6.638;2022-09-09T02:23:09;100078.66;;;23.60;44.64
28344;BME280;15597;50.914;6.638;2022-09-09T02:25:37;100077.63;;;23.72;44.55
28344;BME280;15597;50.914;6.638;2022-09-09T02:28:16;100081.00;;;23.74;44.37
28344;BME280;15597;50.914;6.638;2022-09-09T02:30:45;100076.50;;;23.75;44.45
28344;BME280;15597;50.914;6.638;2022-09-09T02:33:13;100078.06;;;23.77;44.52
28344;BME280;15597;50.914;6.638;2022-09-09T02:35:44;100079.06;;;23.76;44.59
28344;BME280;15597;50.914;6.638;2022-09-09T02:38:14;100079.88;;;23.77;44.60
28344;BME280;15597;50.914;6.638;2022-09-09T02:40:50;100076.38;;;23.76;44.46
28344;BME280;15597;50.914;6.638;2022-09-09T02:43:15;100080.75;;;23.77;44.71
28344;BME280;15597;50.914;6.638;2022-09-09T02:46:01;100072.53;;;23.69;44.50
28344;BME280;15597;50.914;6.638;2022-09-09T02:48:51;100072.53;;;23.69;44.74
28344;BME280;15597;50.914;6.638;2022-09-09T02:51:37;100056.50;;;23.69;44.58
28344;BME280;15597;50.914;6.638;2022-09-09T02:54:17;100057.22;;;23.71;44.76
28344;BME280;15597;50.914;6.638;2022-09-09T02:56:52;100056.25;;;23.72;44.40
28344;BME280;15597;50.914;6.638;2022-09-09T02:59:29;100063.13;;;23.75;44.43
28344;BME280;15597;50.914;6.638;2022-09-09T03:01:55;100054.28;;;23.74;44.35
28344;BME280;15597;50.914;6.638;2022-09-09T03:04:22;100060.63;;;23.73;44.54
28344;BME280;15597;50.914;6.638;2022-09-09T03:06:48;100057.94;;;23.73;44.68
28344;BME280;15597;50.914;6.638;2022-09-09T03:09:18;100064.25;;;23.72;44.57
28344;BME280;15597;50.914;6.638;2022-09-09T03:11:44;100057.94;;;23.73;44.68
28344;BME280;15597;50.914;6.638;2022-09-09T03:14:10;100057.94;;;23.73;44.47
28344;BME280;15597;50.914;6.638;2022-09-09T03:16:36;100066.66;;;23.75;44.78
28344;BME280;15597;50.914;6.638;2022-09-09T03:19:02;100065.81;;;23.75;44.78
28344;BME280;15597;50.914;6.638;2022-09-09T03:21:28;100061.34;;;23.75;44.79
28344;BME280;15597;50.914;6.638;2022-09-09T03:23:54;100066.66;;;23.75;44.46
28344;BME280;15597;50.914;6.638;2022-09-09T03:26:21;100078.19;;;23.76;44.48
28344;BME280;15597;50.914;6.638;2022-09-09T03:28:47;100073.97;;;23.73;44.63
28344;BME280;15597;50.914;6.638;2022-09-09T03:31:16;100066.06;;;23.72;44.42
28344;BME280;15597;50.914;6.638;2022-09-09T03:33:42;100064.53;;;23.69;44.89
28344;BME280;15597;50.914;6.638;2022-09-09T03:36:10;100064.53;;;23.69;44.86
28344;BME280;15597;50.914;6.638;2022-09-09T03:38:36;100060.16;;;23.68;45.07
28344;BME280;15597;50.914;6.638;2022-09-09T03:41:02;100055.66;;;23.69;44.68
28344;BME280;15597;50.914;6.638;2022-09-09T03:43:29;100056.50;;;23.69;44.83
28344;BME280;15597;50.914;6.638;2022-09-09T03:45:55;100056.50;;;23.69;44.73
28344;BME280;15597;50.914;6.638;2022-09-09T03:48:23;100049.75;;;23.65;44.97
28344;BME280;15597;50.914;6.638;2022-09-09T03:50:52;100058.28;;;23.59;44.79
28344;BME280;15597;50.914;6.638;2022-09-09T03:53:21;100063.16;;;23.54;44.88
28344;BME280;15597;50.914;6.638;2022-09-09T03:55:50;100053.28;;;23.44;45.17
28344;BME280;15597;50.914;6.638;2022-09-09T03:58:18;100051.50;;;23.33;45.68
28344;BME280;15597;50.914;6.638;2022-09-09T04:00:59;100049.22;;;23.17;45.80
28344;BME280;15597;50.914;6.638;2022-09-09T04:03:26;100048.75;;;23.12;46.03
28344;BME280;15597;50.914;6.638;2022-09-09T04:05:53;100052.66;;;23.08;45.93
28344;BME280;15597;50.914;6.638;2022-09-09T04:08:21;100052.19;;;23.03;46.10
28344;BME280;15597;50.914;6.638;2022-09-09T04:10:49;100056.94;;;22.99;46.01
28344;BME280;15597;50.914;6.638;2022-09-09T04:13:17;100055.38;;;22.97;46.33
28344;BME280;15597;50.914;6.638;2022-09-09T04:15:44;100056.34;;;22.96;46.27
28344;BME280;15597;50.914;6.638;2022-09-09T04:18:15;100059.16;;;22.94;46.51
28344;BME280;15597;50.914;6.638;2022-09-09T04:20:40;100055.63;;;22.94;46.62
28344;BME280;15597;50.914;6.638;2022-09-09T04:23:06;100060.13;;;22.93;46.37
28344;BME280;15597;50.914;6.638;2022-09-09T04:25:31;100052.22;;;22.91;46.24
28344;BME280;15597;50.914;6.638;2022-09-09T04:27:57;100063.63;;;22.94;46.51
28344;BME280;15597;50.914;6.638;2022-09-09T04:30:24;100059.00;;;22.96;46.55
28344;BME280;15597;50.914;6.638;2022-09-09T04:32:50;100053.56;;;22.97;46.37
28344;BME280;15597;50.914;6.638;2022-09-09T04:35:16;100057.91;;;22.98;46.84
28344;BME280;15597;50.914;6.638;2022-09-09T04:37:42;100055.38;;;22.97;46.71
28344;BME280;15597;50.914;6.638;2022-09-09T04:40:08;100068.97;;;22.94;46.51
28344;BME280;15597;50.914;6.638;2022-09-09T04:42:36;100058.69;;;22.89;46.55
28344;BME280;15597;50.914;6.638;2022-09-09T04:45:02;100062.31;;;22.88;46.80
28344;BME280;15597;50.914;6.638;2022-09-09T04:47:28;100063.88;;;22.90;46.64
28344;BME280;15597;50.914;6.638;2022-09-09T04:49:55;100058.28;;;22.94;46.70
28344;BME280;15597;50.914;6.638;2022-09-09T04:52:22;100062.13;;;23.01;46.99
28344;BME280;15597;50.914;6.638;2022-09-09T04:54:48;100068.09;;;23.04;46.73
28344;BME280;15597;50.914;6.638;2022-09-09T04:57:14;100048.19;;;23.09;46.51
28344;BME280;15597;50.914;6.638;2022-09-09T04:59:40;100050.59;;;23.12;46.71
28344;BME280;15597;50.914;6.638;2022-09-09T05:02:05;100053.97;;;23.14;46.42
28344;BME280;15597;50.914;6.638;2022-09-09T05:04:31;100055.78;;;23.13;46.50
28344;BME280;15597;50.914;6.638;2022-09-09T05:06:58;100065.63;;;23.13;46.50
28344;BME280;15597;50.914;6.638;2022-09-09T05:09:24;100056.28;;;23.07;46.86
28344;BME280;15597;50.914;6.638;2022-09-09T05:11:50;100053.16;;;23.02;46.76
28344;BME280;15597;50.914;6.638;2022-09-09T05:14:24;100064.34;;;22.96;46.75
28344;BME280;15597;50.914;6.638;2022-09-09T05:16:49;100064.84;;;22.89;46.92
28344;BME280;15597;50.914;6.638;2022-09-09T05:19:15;100065.09;;;22.86;46.87
28344;BME280;15597;50.914;6.638;2022-09-09T05:21:46;100061.00;;;22.82;47.23
28344;BME280;15597;50.914;6.638;2022-09-09T05:24:14;100067.53;;;22.78;47.34
28344;BME280;15597;50.914;6.638;2022-09-09T05:26:41;100070.47;;;22.75;47.37
28344;BME280;15597;50.914;6.638;2022-09-09T05:29:08;100065.50;;;22.70;47.47
28344;BME280;15597;50.914;6.638;2022-09-09T05:31:34;100065.16;;;22.64;47.52
28344;BME280;15597;50.914;6.638;2022-09-09T05:34:02;100068.31;;;22.57;47.33
28344;BME280;15597;50.914;6.638;2022-09-09T05:36:28;100072.31;;;22.52;47.43
28344;BME280;15597;50.914;6.638;2022-09-09T05:38:55;100073.44;;;22.49;47.50
28344;BME280;15597;50.914;6.638;2022-09-09T05:41:23;100063.00;;;22.46;47.45
28344;BME280;15597;50.914;6.638;2022-09-09T05:43:49;100068.56;;;22.43;47.89
28344;BME280;15597;50.914;6.638;2022-09-09T05:46:18;100063.47;;;22.40;47.72
28344;BME280;15597;50.914;6.638;2022-09-09T05:48:47;100068.06;;;22.38;47.80
28344;BME280;15597;50.914;6.638;2022-09-09T05:51:15;100078.00;;;22.36;47.83
28344;BME280;15597;50.914;6.638;2022-09-09T05:53:42;100077.28;;;22.33;47.82
28344;BME280;15597;50.914;6.638;2022-09-09T05:56:10;100074.72;;;22.32;47.69
28344;BME280;15597;50.914;6.638;2022-09-09T05:58:37;100086.97;;;22.35;47.69
28344;BME280;15597;50.914;6.638;2022-09-09T06:01:13;100090.38;;;22.37;47.76
28344;BME280;15597;50.914;6.638;2022-09-09T06:03:41;100091.81;;;22.41;47.94
28344;BME280;15597;50.914;6.638;2022-09-09T06:06:10;100095.22;;;22.43;47.53
28344;BME280;15597;50.914;6.638;2022-09-09T06:08:38;100087.97;;;22.45;47.73
28344;BME280;15597;50.914;6.638;2022-09-09T06:11:08;100085.16;;;22.46;47.50
28344;BME280;15597;50.914;6.638;2022-09-09T06:13:35;100087.72;;;22.48;47.46
28344;BME280;15597;50.914;6.638;2022-09-09T06:16:03;100081.03;;;22.54;47.19
28344;BME280;15597;50.914;6.638;2022-09-09T06:18:29;100080.78;;;22.57;47.64
28344;BME280;15597;50.914;6.638;2022-09-09T06:23:26;100084.78;;;22.63;47.37
28344;BME280;15597;50.914;6.638;2022-09-09T06:26:07;100078.75;;;22.60;47.24
28344;BME280;15597;50.914;6.638;2022-09-09T06:28:34;100076.41;;;22.67;47.32
28344;BME280;15597;50.914;6.638;2022-09-09T06:31:02;100078.97;;;22.69;47.24
28344;BME280;15597;50.914;6.638;2022-09-09T06:33:34;100075.56;;;22.67;47.20
28344;BME280;15597;50.914;6.638;2022-09-09T06:36:02;100073.38;;;22.72;47.29
28344;BME280;15597;50.914;6.638;2022-09-09T06:38:29;100066.09;;;22.74;47.39
28344;BME280;15597;50.914;6.638;2022-09-09T06:40:57;100076.06;;;22.72;47.34
28344;BME280;15597;50.914;6.638;2022-09-09T06:43:25;100071.69;;;22.71;47.21
28344;BME280;15597;50.914;6.638;2022-09-09T06:45:53;100070.00;;;22.70;47.21
28344;BME280;15597;50.914;6.638;2022-09-09T06:48:19;100066.34;;;22.71;47.14
28344;BME280;15597;50.914;6.638;2022-09-09T06:50:45;100064.66;;;22.70;47.03
28344;BME280;15597;50.914;6.638;2022-09-09T06:53:12;100065.63;;;22.69;47.10
28344;BME280;15597;50.914;6.638;2022-09-09T06:55:38;100071.94;;;22.68;47.16
28344;BME280;15597;50.914;6.638;2022-09-09T06:58:08;100071.69;;;22.71;47.01
28344;BME280;15597;50.914;6.638;2022-09-09T07:00:34;100070.72;;;22.72;47.10
28344;BME280;15597;50.914;6.638;2022-09-09T07:03:04;100067.78;;;22.75;46.96
28344;BME280;15597;50.914;6.638;2022-09-09T07:05:31;100067.53;;;22.78;46.79
28344;BME280;15597;50.914;6.638;2022-09-09T07:07:57;100066.47;;;22.81;46.88
28344;BME280;15597;50.914;6.638;2022-09-09T07:10:24;100077.72;;;22.84;46.98
28344;BME280;15597;50.914;6.638;2022-09-09T07:12:51;100066.78;;;22.87;46.92
28344;BME280;15597;50.914;6.638;2022-09-09T07:15:18;100073.81;;;22.88;46.75
28344;BME280;15597;50.914;6.638;2022-09-09T07:17:45;100071.16;;;22.88;46.56
28344;BME280;15597;50.914;6.638;2022-09-09T07:20:11;100070.19;;;22.89;46.32
28344;BME280;15597;50.914;6.638;2022-09-09T07:22:37;100074.69;;;22.89;46.41
28344;BME280;15597;50.914;6.638;2022-09-09T07:25:04;100079.88;;;22.90;46.08
28344;BME280;15597;50.914;6.638;2022-09-09T07:27:31;100075.41;;;22.91;46.20
28344;BME280;15597;50.914;6.638;2022-09-09T07:29:57;100080.59;;;22.93;46.37
28344;BME280;15597;50.914;6.638;2022-09-09T07:32:23;100082.28;;;22.94;46.05
28344;BME280;15597;50.914;6.638;2022-09-09T07:34:51;100085.69;;;22.96;46.04
28344;BME280;15597;50.914;6.638;2022-09-09T07:37:16;100086.41;;;22.98;45.88
28344;BME280;15597;50.914;6.638;2022-09-09T07:39:44;100091.03;;;22.96;45.81
28344;BME280;15597;50.914;6.638;2022-09-09T07:42:10;100089.94;;;22.98;45.99
28344;BME280;15597;50.914;6.638;2022-09-09T07:44:37;100090.50;;;23.02;45.36
28344;BME280;15597;50.914;6.638;2022-09-09T07:47:15;100090.50;;;23.02;45.52
28344;BME280;15597;50.914;6.638;2022-09-09T07:49:44;100101.06;;;23.03;45.51
28344;BME280;15597;50.914;6.638;2022-09-09T07:52:12;100091.25;;;23.04;45.32
28344;BME280;15597;50.914;6.638;2022-09-09T07:54:41;100092.09;;;23.04;45.24
28344;BME280;15597;50.914;6.638;2022-09-09T07:57:07;100093.66;;;23.07;45.18
28344;BME280;15597;50.914;6.638;2022-09-09T07:59:35;100093.53;;;23.09;45.24
28344;BME280;15597;50.914;6.638;2022-09-09T08:02:02;100088.78;;;23.12;45.15
28344;BME280;15597;50.914;6.638;2022-09-09T08:04:30;100098.13;;;23.18;44.97
28344;BME280;15597;50.914;6.638;2022-09-09T08:06:58;100084.78;;;23.18;44.97
28344;BME280;15597;50.914;6.638;2022-09-09T08:09:26;100089.97;;;23.19;44.98
28344;BME280;15597;50.914;6.638;2022-09-09T08:11:57;100087.28;;;23.19;44.67
28344;BME280;15597;50.914;6.638;2022-09-09T08:14:24;100093.88;;;23.15;44.67
28344;BME280;15597;50.914;6.638;2022-09-09T08:16:50;100107.81;;;23.19;44.69
28344;BME280;15597;50.914;6.638;2022-09-09T08:19:19;100103.31;;;23.19;44.76
28344;BME280;15597;50.914;6.638;2022-09-09T08:21:45;100098.69;;;23.22;44.74
28344;BME280;15597;50.914;6.638;2022-09-09T08:24:12;100095.69;;;23.26;44.60
28344;BME280;15597;50.914;6.638;2022-09-09T08:26:43;100096.97;;;23.32;44.63
28344;BME280;15597;50.914;6.638;2022-09-09T08:29:11;100099.28;;;23.37;44.53
28344;BME280;15597;50.914;6.638;2022-09-09T08:34:07;100105.22;;;23.40;44.07
28344;BME280;15597;50.914;6.638;2022-09-09T08:36:35;100102.41;;;23.42;44.00
28344;BME280;15597;50.914;6.638;2022-09-09T08:39:03;100110.16;;;23.45;43.99
28344;BME280;15597;50.914;6.638;2022-09-09T08:47:15;100118.06;;;23.46;43.71
28344;BME280;15597;50.914;6.638;2022-09-09T08:50:11;100105.47;;;23.37;43.61
28344;BME280;15597;50.914;6.638;2022-09-09T08:52:52;100110.81;;;23.37;43.45
28344;BME280;15597;50.914;6.638;2022-09-09T08:58:43;100123.09;;;23.28;43.44
28344;BME280;15597;50.914;6.638;2022-09-09T09:01:34;100117.50;;;23.31;43.69
28344;BME280;15597;50.914;6.638;2022-09-09T09:05:19;100121.59;;;23.36;43.55
28344;BME280;15597;50.914;6.638;2022-09-09T09:10:37;100120.72;;;23.46;43.13
28344;BME280;15597;50.914;6.638;2022-09-09T09:13:12;100127.75;;;23.47;43.13
28344;BME280;15597;50.914;6.638;2022-09-09T09:15:41;100114.88;;;23.53;43.28
28344;BME280;15597;50.914;6.638;2022-09-09T09:18:11;100119.69;;;23.59;43.05
28344;BME280;15597;50.914;6.638;2022-09-09T09:20:54;100114.88;;;23.53;43.20
28344;BME280;15597;50.914;6.638;2022-09-09T09:23:25;100116.06;;;23.60;42.91
28344;BME280;15597;50.914;6.638;2022-09-09T09:25:58;100122.81;;;23.64;43.07
28344;BME280;15597;50.914;6.638;2022-09-09T09:28:29;100118.91;;;23.68;42.96
28344;BME280;15597;50.914;6.638;2022-09-09T09:31:09;100113.59;;;23.68;43.24
28344;BME280;15597;50.914;6.638;2022-09-09T09:36:07;100121.78;;;23.76;43.07
28344;BME280;15597;50.914;6.638;2022-09-09T09:38:35;100127.69;;;23.80;43.03
28344;BME280;15597;50.914;6.638;2022-09-09T09:41:02;100123.06;;;23.82;42.79
28344;BME280;15597;50.914;6.638;2022-09-09T09:43:36;100125.88;;;23.81;42.76
28344;BME280;15597;50.914;6.638;2022-09-09T09:46:19;100126.00;;;23.79;43.05
28344;BME280;15597;50.914;6.638;2022-09-09T09:49:05;100117.16;;;23.78;43.06
28344;BME280;15597;50.914;6.638;2022-09-09T09:51:32;100132.03;;;23.92;43.14
28344;BME280;15597;50.914;6.638;2022-09-09T09:54:08;100124.13;;;23.91;43.01
28344;BME280;15597;50.914;6.638;2022-09-09T09:56:36;100119.94;;;23.98;42.75
28344;BME280;15597;50.914;6.638;2022-09-09T09:59:03;100123.09;;;24.03;42.95
28344;BME280;15597;50.914;6.638;2022-09-09T10:01:34;100130.13;;;24.04;42.44
28344;BME280;15597;50.914;6.638;2022-09-09T10:04:15;100128.13;;;23.97;42.49
28344;BME280;15597;50.914;6.638;2022-09-09T10:06:43;100129.44;;;24.02;42.13
28344;BME280;15597;50.914;6.638;2022-09-09T10:09:26;100122.44;;;23.90;42.38
28344;BME280;15597;50.914;6.638;2022-09-09T10:14:48;100114.59;;;23.98;42.42
28344;BME280;15597;50.914;6.638;2022-09-09T10:22:38;100115.81;;;24.05;42.08
28344;BME280;15597;50.914;6.638;2022-09-09T10:36:20;100124.78;;;24.04;42.58
28344;BME280;15597;50.914;6.638;2022-09-09T10:38:50;100121.22;;;24.15;42.07
28344;BME280;15597;50.914;6.638;2022-09-09T10:44:17;100112.03;;;24.08;42.17
28344;BME280;15597;50.914;6.638;2022-09-09T10:47:05;100113.84;;;24.07;42.29
28344;BME280;15597;50.914;6.638;2022-09-09T10:50:05;100110.47;;;24.05;42.07
28344;BME280;15597;50.914;6.638;2022-09-09T10:52:52;100106.81;;;24.06;42.31
28344;BME280;15597;50.914;6.638;2022-09-09T10:55:42;100109.03;;;24.01;42.02
28344;BME280;15597;50.914;6.638;2022-09-09T10:58:21;100106.81;;;24.06;41.93
28344;BME280;15597;50.914;6.638;2022-09-09T11:00:56;100097.53;;;24.11;41.85
28344;BME280;15597;50.914;6.638;2022-09-09T11:03:28;100104.31;;;24.15;41.89
28344;BME280;15597;50.914;6.638;2022-09-09T11:06:06;100099.22;;;24.12;41.98
28344;BME280;15597;50.914;6.638;2022-09-09T11:08:39;100105.56;;;24.11;41.89
28344;BME280;15597;50.914;6.638;2022-09-09T11:11:12;100101.19;;;24.10;41.65
28344;BME280;15597;50.914;6.638;2022-09-09T11:13:40;100098.97;;;24.15;41.73
28344;BME280;15597;50.914;6.638;2022-09-09T11:16:28;100099.38;;;24.10;41.73
28344;BME280;15597;50.914;6.638;2022-09-09T11:19:03;100095.84;;;24.10;41.34
28344;BME280;15597;50.914;6.638;2022-09-09T11:21:41;100093.06;;;24.11;41.48
28344;BME280;15597;50.914;6.638;2022-09-09T11:24:18;100092.78;;;24.14;41.54
28344;BME280;15597;50.914;6.638;2022-09-09T11:26:54;100090.13;;;24.14;41.51
28344;BME280;15597;50.914;6.638;2022-09-09T11:32:27;100081.25;;;24.14;41.11
28344;BME280;15597;50.914;6.638;2022-09-09T11:38:01;100092.38;;;24.19;41.32
28344;BME280;15597;50.914;6.638;2022-09-09T11:40:32;100096.47;;;24.23;41.54
28344;BME280;15597;50.914;6.638;2022-09-09T11:43:09;100095.47;;;24.14;41.75
28344;BME280;15597;50.914;6.638;2022-09-09T11:45:39;100094.66;;;24.24;41.55
28344;BME280;15597;50.914;6.638;2022-09-09T11:48:42;100093.63;;;24.15;41.97
28344;BME280;15597;50.914;6.638;2022-09-09T11:53:54;100100.38;;;24.19;41.42
28344;BME280;15597;50.914;6.638;2022-09-09T11:56:43;100099.22;;;24.12;41.88
28344;BME280;15597;50.914;6.638;2022-09-09T11:59:31;100094.47;;;24.15;42.36
28344;BME280;15597;50.914;6.638;2022-09-09T12:02:02;100094.66;;;24.24;42.40
28344;BME280;15597;50.914;6.638;2022-09-09T12:07:41;100095.81;;;24.31;42.85
28344;BME280;15597;50.914;6.638;2022-09-09T12:10:34;100094.56;;;24.35;42.52
28344;BME280;15597;50.914;6.638;2022-09-09T12:13:19;100089.78;;;24.39;42.40
28344;BME280;15597;50.914;6.638;2022-09-09T12:15:50;100089.25;;;24.45;42.70
28344;BME280;15597;50.914;6.638;2022-09-09T12:18:31;100095.13;;;24.39;42.65
28344;BME280;15597;50.914;6.638;2022-09-09T12:21:33;100127.03;;;24.30;43.38
28344;BME280;15597;50.914;6.638;2022-09-09T12:24:13;100131.47;;;24.20;43.62
28344;BME280;15597;50.914;6.638;2022-09-09T12:26:47;100129.16;;;24.05;44.18
28344;BME280;15597;50.914;6.638;2022-09-09T12:32:05;100138.47;;;23.90;44.87
28344;BME280;15597;50.914;6.638;2022-09-09T12:34:41;100129.63;;;23.89;46.47
28344;BME280;15597;50.914;6.638;2022-09-09T12:39:56;100118.81;;;24.12;47.34
28344;BME280;15597;50.914;6.638;2022-09-09T12:42:23;100107.88;;;24.25;47.81
28344;BME280;15597;50.914;6.638;2022-09-09T12:44:53;100097.63;;;24.30;47.12
28344;BME280;15597;50.914;6.638;2022-09-09T12:47:21;100093.63;;;24.46;47.52
28344;BME280;15597;50.914;6.638;2022-09-09T12:49:48;100091.56;;;24.59;47.09
28344;BME280;15597;50.914;6.638;2022-09-09T12:52:33;100085.63;;;24.56;46.91
28344;BME280;15597;50.914;6.638;2022-09-09T12:55:02;100089.31;;;24.64;46.16
28344;BME280;15597;50.914;6.638;2022-09-09T12:57:35;100085.06;;;24.62;45.83
28344;BME280;15597;50.914;6.638;2022-09-09T13:00:11;100092.69;;;24.67;45.34
28344;BME280;15597;50.914;6.638;2022-09-09T13:02:48;100088.03;;;24.59;45.28
28344;BME280;15597;50.914;6.638;2022-09-09T13:05:35;100082.81;;;24.57;44.47
28344;BME280;15597;50.914;6.638;2022-09-09T13:08:06;100079.44;;;24.55;44.85
28344;BME280;15597;50.914;6.638;2022-09-09T13:10:57;100076.88;;;24.54;44.86
28344;BME280;15597;50.914;6.638;2022-09-09T13:13:25;100074.53;;;24.60;44.62
28344;BME280;15597;50.914;6.638;2022-09-09T13:15:56;100057.78;;;24.58;44.66
28344;BME280;15597;50.914;6.638;2022-09-09T13:18:26;100054.66;;;24.63;44.22
28344;BME280;15597;50.914;6.638;2022-09-09T13:20:52;100064.97;;;24.68;44.23
28344;BME280;15597;50.914;6.638;2022-09-09T13:23:19;100060.59;;;24.67;43.93
28344;BME280;15597;50.914;6.638;2022-09-09T13:25:55;100061.66;;;24.44;44.37
28344;BME280;15597;50.914;6.638;2022-09-09T13:28:24;100063.81;;;24.60;44.05
28344;BME280;15597;50.914;6.638;2022-09-09T13:33:35;100042.88;;;24.65;43.94
28344;BME280;15597;50.914;6.638;2022-09-09T13:36:09;100049.34;;;24.73;43.83
28344;BME280;15597;50.914;6.638;2022-09-09T13:38:56;100048.91;;;24.68;43.64
28344;BME280;15597;50.914;6.638;2022-09-09T13:41:23;100041.41;;;24.51;43.78
28344;BME280;15597;50.914;6.638;2022-09-09T13:43:50;100044.69;;;24.65;43.72
28344;BME280;15597;50.914;6.638;2022-09-09T13:46:31;100044.84;;;24.63;43.77
28344;BME280;15597;50.914;6.638;2022-09-09T13:49:00;100035.72;;;24.76;42.91
28344;BME280;15597;50.914;6.638;2022-09-09T13:51:29;100033.28;;;24.53;43.51
28344;BME280;15597;50.914;6.638;2022-09-09T13:53:55;100042.97;;;24.64;42.88
28344;BME280;15597;50.914;6.638;2022-09-09T13:56:21;100049.75;;;24.68;42.74
28344;BME280;15597;50.914;6.638;2022-09-09T13:58:46;100053.00;;;24.72;42.60
28344;BME280;15597;50.914;6.638;2022-09-09T14:01:12;100065.41;;;24.73;42.73
28344;BME280;15597;50.914;6.638;2022-09-09T14:03:37;100076.09;;;24.73;42.41
28344;BME280;15597;50.914;6.638;2022-09-09T14:06:03;100078.06;;;24.71;43.04
28344;BME280;15597;50.914;6.638;2022-09-09T14:08:29;100078.34;;;24.68;43.00
28344;BME280;15597;50.914;6.638;2022-09-09T14:11:03;100074.97;;;24.65;43.29
28344;BME280;15597;50.914;6.638;2022-09-09T14:13:29;100076.06;;;24.63;43.29
28344;BME280;15597;50.914;6.638;2022-09-09T14:15:54;100080.84;;;24.59;44.01
28344;BME280;15597;50.914;6.638;2022-09-09T14:18:20;100081.13;;;24.56;43.86
28344;BME280;15597;50.914;6.638;2022-09-09T14:20:47;100086.75;;;24.53;44.31
28344;BME280;15597;50.914;6.638;2022-09-09T14:23:13;100084.47;;;24.48;44.37
28344;BME280;15597;50.914;6.638;2022-09-09T14:25:40;100070.66;;;24.43;44.33
28344;BME280;15597;50.914;6.638;2022-09-09T14:28:09;100086.16;;;24.40;44.62
28344;BME280;15597;50.914;6.638;2022-09-09T14:30:34;100080.81;;;24.40;45.15
28344;BME280;15597;50.914;6.638;2022-09-09T14:33:00;100079.06;;;24.39;45.17
28344;BME280;15597;50.914;6.638;2022-09-09T14:35:25;100088.09;;;24.38;45.53
28344;BME280;15597;50.914;6.638;2022-09-09T14:37:51;100073.72;;;24.39;45.22
28344;BME280;15597;50.914;6.638;2022-09-09T14:40:17;100071.81;;;24.41;45.57
28344;BME280;15597;50.914;6.638;2022-09-09T14:42:42;100071.53;;;24.44;45.43
28344;BME280;15597;50.914;6.638;2022-09-09T14:45:08;100089.00;;;24.48;45.10